Time;durP1;ratioP1;P1;durP2;ratioP2;P2;SDS_P1;SDS_P2;PMS_P1;PMS_P2;Temp;Humidity;BMP_temperature;BMP_pressure;BME280_temperature;BME280_humidity;BME280_pressure;Samples;Min_cycle;Max_cycle;Signal;HPM_P1;HPM_P2
2023/05/24 00:02:13;;;;;;;6.60;2.13;;;;;;;21.85;34.37;101188.19;4853440;29;20053;-78
2023/05/24 00:04:43;;;;;;;4.82;1.80;;;;;;;21.89;34.01;101184.59;4856968;29;20096;-79
2023/05/24 00:07:12;;;;;;;5.55;1.83;;;;;;;21.84;34.05;101181.16;4869622;29;20084;-84
2023/05/24 00:09:41;;;;;;;5.45;1.92;;;;;;;21.78;34.35;101189.09;4864731;29;20077;-77
2023/05/24 00:12:09;;;;;;;3.15;1.60;;;;;;;21.70;35.26;101183.06;4863836;29;20045;-78
2023/05/24 00:14:38;;;;;;;7.22;2.38;;;;;;;21.59;35.68;101190.19;4856653;29;20058;-79
2023/05/24 00:17:08;;;;;;;6.45;2.40;;;;;;;21.48;35.18;101183.25;4855499;29;20057;-80
2023/05/24 00:19:37;;;;;;;10.25;2.25;;;;;;;21.39;34.65;101188.56;4856523;29;20098;-76
2023/05/24 00:22:05;;;;;;;7.13;2.20;;;;;;;21.32;34.92;101182.47;4860847;29;20064;-75
2023/05/24 00:24:34;;;;;;;6.68;2.08;;;;;;;21.32;35.23;101186.84;4856316;29;20083;-78
2023/05/24 00:27:03;;;;;;;4.43;1.80;;;;;;;21.28;36.31;101183.41;4873020;29;20053;-77
2023/05/24 00:29:31;;;;;;;3.97;2.22;;;;;;;21.26;35.71;101186.94;4857321;29;20052;-74
2023/05/24 00:32:00;;;;;;;6.20;1.98;;;;;;;21.30;34.90;101172.84;4855213;29;20045;-76
2023/05/24 00:34:30;;;;;;;6.97;1.88;;;;;;;21.38;33.76;101173.66;4858189;29;20053;-77
2023/05/24 00:36:59;;;;;;;4.53;2.00;;;;;;;21.38;36.23;101176.28;4863138;29;20045;-80
2023/05/24 00:39:28;;;;;;;6.10;1.88;;;;;;;21.39;35.82;101172.75;4861817;29;20172;-77
2023/05/24 00:41:56;;;;;;;5.35;1.88;;;;;;;21.48;35.48;101177.09;4858904;29;20058;-75
2023/05/24 00:44:25;;;;;;;7.65;1.77;;;;;;;21.46;35.36;101174.50;4857971;29;20058;-79
2023/05/24 00:46:53;;;;;;;6.35;2.42;;;;;;;21.40;35.52;101169.28;4857784;29;20057;-77
2023/05/24 00:49:23;;;;;;;4.88;1.95;;;;;;;21.39;35.41;101183.28;4856377;29;20069;-77
2023/05/24 00:51:55;;;;;;;7.95;2.40;;;;;;;21.42;36.00;101177.19;4856217;29;20098;-77
2023/05/24 00:54:25;;;;;;;9.32;2.08;;;;;;;21.38;35.66;101165.75;4871708;29;20057;-79
2023/05/24 00:56:55;;;;;;;7.35;2.55;;;;;;;21.30;35.97;101164.94;4857731;29;20046;-83
2023/05/24 00:59:25;;;;;;;3.38;1.70;;;;;;;21.17;35.69;101171.22;4858809;29;20060;-81
2023/05/24 01:01:54;;;;;;;6.18;2.10;;;;;;;21.03;36.31;101161.66;4856551;29;20057;-78
2023/05/24 01:04:22;;;;;;;6.45;2.50;;;;;;;20.94;36.63;101159.09;4858306;29;20050;-79
2023/05/24 01:07:07;;;;;;;4.35;1.58;;;;;;;20.95;35.90;101155.56;4860338;29;20552;-78
2023/05/24 01:09:46;;;;;;;6.18;1.90;;;;;;;20.93;37.08;101165.22;4864380;29;20501;-81
2023/05/24 01:12:23;;;;;;;8.45;3.08;;;;;;;20.97;37.05;101164.31;4852349;29;20060;-81
2023/05/24 01:15:00;;;;;;;5.43;1.85;;;;;;;21.01;36.75;101157.28;4870236;29;20586;-80
2023/05/24 01:17:37;;;;;;;4.75;1.75;;;;;;;20.92;36.95;101152.97;4862803;29;20443;-80
2023/05/24 01:20:09;;;;;;;5.93;2.00;;;;;;;20.83;37.98;101155.66;4869533;29;20049;-76
2023/05/24 01:23:25;;;;;;;4.90;2.03;;;;;;;20.75;36.41;101147.78;4862882;29;20049;-77
2023/05/24 01:26:18;;;;;;;5.30;2.00;;;;;;;20.68;37.23;101147.00;4799715;29;20055;-76
2023/05/24 01:28:49;;;;;;;7.45;2.13;;;;;;;20.57;37.59;101140.00;4850153;29;20050;-83
2023/05/24 01:31:19;;;;;;;7.50;2.42;;;;;;;20.38;37.39;101140.09;4854465;29;20054;-80
2023/05/24 01:33:48;;;;;;;4.95;2.10;;;;;;;20.26;37.62;101141.00;4859899;29;20102;-79
2023/05/24 01:36:17;;;;;;;4.20;1.63;;;;;;;20.18;38.00;101134.03;4852017;29;20057;-81
2023/05/24 01:38:47;;;;;;;7.15;2.08;;;;;;;20.06;38.53;101132.34;4860972;29;20080;-79
2023/05/24 01:41:25;;;;;;;7.35;1.65;;;;;;;20.01;39.29;101139.38;4858509;29;20117;-79
2023/05/24 01:44:05;;;;;;;9.32;2.40;;;;;;;19.87;40.03;101140.28;4874010;29;20060;-78
2023/05/24 01:46:37;;;;;;;8.00;2.10;;;;;;;19.81;39.09;101129.81;4857896;29;21027;-81
2023/05/24 01:49:17;;;;;;;8.27;2.00;;;;;;;19.67;39.03;101131.53;4858387;29;20516;-87
2023/05/24 01:51:54;;;;;;;6.35;2.00;;;;;;;19.56;38.88;101128.06;4861448;29;20054;-81
2023/05/24 01:54:27;;;;;;;6.93;2.38;;;;;;;19.52;39.46;101131.59;4859579;29;20734;-78
2023/05/24 01:56:56;;;;;;;7.70;1.90;;;;;;;19.49;39.61;101126.31;4854915;29;20544;-79
2023/05/24 01:59:29;;;;;;;4.15;1.85;;;;;;;19.44;39.69;101123.69;4862157;29;20556;-78
2023/05/24 02:01:58;;;;;;;6.15;1.52;;;;;;;19.41;40.06;101132.47;4854920;29;20139;-78
2023/05/24 02:04:28;;;;;;;3.05;1.30;;;;;;;19.39;40.46;101120.22;4852510;29;20041;-78
2023/05/24 02:06:56;;;;;;;8.32;1.60;;;;;;;19.37;40.90;101119.34;4861363;29;20053;-77
2023/05/24 02:09:25;;;;;;;4.22;1.20;;;;;;;19.35;41.65;101124.56;4859653;29;20605;-79
2023/05/24 02:11:54;;;;;;;4.05;1.35;;;;;;;19.32;40.22;101127.22;4857369;29;20044;-75
2023/05/24 02:14:23;;;;;;;5.72;1.60;;;;;;;19.28;39.98;101128.09;4865033;29;20057;-81
2023/05/24 02:16:57;;;;;;;5.68;1.73;;;;;;;19.22;40.20;101122.88;4857996;29;20045;-79
2023/05/24 02:19:26;;;;;;;4.00;1.40;;;;;;;19.19;40.30;101135.97;4850042;29;20056;-77
2023/05/24 02:21:54;;;;;;;3.38;1.00;;;;;;;19.13;40.54;101139.47;4853939;29;20057;-80
2023/05/24 02:24:23;;;;;;;5.38;1.15;;;;;;;19.15;41.02;101142.97;4857574;29;20054;-80
2023/05/24 02:26:51;;;;;;;2.78;1.38;;;;;;;19.19;41.53;101142.06;4857416;29;20057;-80
2023/05/24 02:29:20;;;;;;;4.03;1.40;;;;;;;19.17;42.00;101140.31;4855856;29;20061;-81
2023/05/24 02:31:53;;;;;;;8.60;1.35;;;;;;;19.13;41.89;101144.72;4857970;29;20244;-75
2023/05/24 02:34:24;;;;;;;5.32;0.85;;;;;;;19.07;42.10;101143.84;4854841;29;20381;-78
2023/05/24 02:36:54;;;;;;;4.47;1.20;;;;;;;18.93;42.40;101141.19;4855384;29;20072;-75
2023/05/24 02:39:23;;;;;;;7.88;1.75;;;;;;;18.91;42.12;101148.19;4857429;29;20056;-77
2023/05/24 02:41:51;;;;;;;4.35;1.58;;;;;;;18.86;42.71;101150.81;4854839;29;20491;-78
2023/05/24 02:44:20;;;;;;;6.30;1.58;;;;;;;18.85;42.65;101149.03;4856261;29;20520;-78
2023/05/24 02:46:48;;;;;;;7.78;1.20;;;;;;;18.83;42.65;101151.69;4852337;29;20443;-79
2023/05/24 02:49:17;;;;;;;6.75;1.25;;;;;;;18.80;43.29;101148.16;4853085;29;20068;-76
2023/05/24 02:51:47;;;;;;;7.10;1.50;;;;;;;18.76;42.98;101154.22;4859586;29;20049;-78
2023/05/24 02:54:16;;;;;;;10.75;1.48;;;;;;;18.70;42.53;101156.84;4861454;29;20706;-79
2023/05/24 02:56:45;;;;;;;8.32;1.35;;;;;;;18.63;42.72;101156.84;4857860;29;20077;-80
2023/05/24 02:59:13;;;;;;;7.07;1.42;;;;;;;18.58;43.74;101152.47;4849001;29;20049;-80
2023/05/24 03:01:43;;;;;;;1.85;1.08;;;;;;;18.51;43.50;101151.56;4858615;29;20644;-80
2023/05/24 03:04:11;;;;;;;4.55;1.30;;;;;;;18.46;43.08;101148.03;4857194;29;20048;-79
2023/05/24 03:06:40;;;;;;;8.93;1.67;;;;;;;18.38;42.70;101149.78;4856631;29;20076;-80
2023/05/24 03:09:10;;;;;;;4.78;1.42;;;;;;;18.33;42.73;101148.88;4860194;29;20045;-81
2023/05/24 03:11:39;;;;;;;3.90;0.95;;;;;;;18.28;42.56;101155.81;4853201;29;20572;-79
2023/05/24 03:14:09;;;;;;;4.28;1.30;;;;;;;18.21;43.18;101147.97;4853934;29;20057;-79
2023/05/24 03:16:38;;;;;;;7.15;1.60;;;;;;;18.14;43.21;101151.44;4855774;29;20045;-81
2023/05/24 03:19:07;;;;;;;3.70;1.17;;;;;;;18.09;43.47;101140.03;4860062;29;20081;-80
2023/05/24 03:21:35;;;;;;;3.78;1.35;;;;;;;18.07;43.30;101156.59;4862842;29;20049;-80
2023/05/24 03:24:04;;;;;;;4.70;1.35;;;;;;;18.00;44.23;101150.47;4862339;29;20057;-79
2023/05/24 03:26:34;;;;;;;2.05;1.20;;;;;;;17.94;43.44;101155.69;4862417;29;20045;-78
2023/05/24 03:29:03;;;;;;;4.78;1.35;;;;;;;17.89;43.49;101158.28;4858244;29;20060;-78
2023/05/24 03:31:31;;;;;;;4.32;1.45;;;;;;;17.83;44.08;101158.22;4848726;29;20045;-80
2023/05/24 03:34:00;;;;;;;4.22;1.15;;;;;;;17.77;43.96;101161.66;4862256;29;20060;-79
2023/05/24 03:36:29;;;;;;;2.38;0.93;;;;;;;17.69;44.44;101155.50;4848173;29;20061;-79
2023/05/24 03:38:58;;;;;;;4.47;1.13;;;;;;;17.61;45.18;101154.56;4857280;29;20536;-78
2023/05/24 03:41:27;;;;;;;2.25;1.13;;;;;;;17.55;44.91;101151.91;4857574;29;20054;-80
2023/05/24 03:43:58;;;;;;;4.13;1.17;;;;;;;17.47;44.53;101151.84;4853950;29;20141;-80
2023/05/24 03:46:26;;;;;;;1.50;0.95;;;;;;;17.41;45.26;101143.97;4848853;29;20592;-78
2023/05/24 03:49:01;;;;;;;4.45;1.10;;;;;;;17.37;45.21;101157.88;4842175;29;20050;-79
2023/05/24 03:51:33;;;;;;;3.97;0.80;;;;;;;17.32;45.69;101163.06;4841051;29;20050;-79
2023/05/24 03:54:01;;;;;;;5.15;1.20;;;;;;;17.25;45.73;101163.88;4849186;29;20425;-80
2023/05/24 03:56:30;;;;;;;4.05;1.13;;;;;;;17.18;45.79;101159.47;4852918;29;20052;-79
2023/05/24 03:59:02;;;;;;;4.15;1.20;;;;;;;17.12;46.13;101167.25;4856455;29;20073;-78
2023/05/24 04:01:31;;;;;;;;;;;;;;;17.05;46.54;101165.44;4860595;29;20121;-79
2023/05/24 04:04:00;;;;;;;2.58;1.45;;;;;;;17.00;46.83;101172.38;4850370;29;20011;-80
2023/05/24 04:06:29;;;;;;;4.47;1.08;;;;;;;16.92;46.48;101175.75;4849157;29;20061;-78
2023/05/24 04:08:58;;;;;;;3.63;1.27;;;;;;;16.87;46.65;101172.22;4853695;29;20089;-78
2023/05/24 04:11:27;;;;;;;6.88;1.05;;;;;;;16.82;47.22;101173.94;4863729;29;20057;-80
2023/05/24 04:13:56;;;;;;;2.80;0.93;;;;;;;16.75;46.94;101172.94;4857199;29;20634;-79
2023/05/24 04:16:26;;;;;;;5.53;1.65;;;;;;;16.69;47.02;101177.22;4853490;29;20698;-79
2023/05/24 04:18:55;;;;;;;6.80;1.42;;;;;;;16.64;47.20;101173.69;4858769;29;20421;-78
2023/05/24 04:21:24;;;;;;;3.50;1.15;;;;;;;16.59;47.92;101184.09;4856695;29;20089;-79
2023/05/24 04:23:53;;;;;;;2.80;1.05;;;;;;;16.52;47.45;101180.53;4853141;29;20085;-78
2023/05/24 04:26:21;;;;;;;5.50;1.52;;;;;;;16.45;47.55;101183.06;4857023;29;20049;-74
2023/05/24 04:28:50;;;;;;;4.00;1.30;;;;;;;16.40;48.82;101180.38;4855789;29;20141;-74
2023/05/24 04:31:19;;;;;;;2.78;1.10;;;;;;;16.38;47.34;101195.16;4859058;29;20053;-76
2023/05/24 04:33:49;;;;;;;6.03;1.40;;;;;;;16.35;48.44;101189.88;4853617;29;20042;-77
2023/05/24 04:36:18;;;;;;;1.65;1.00;;;;;;;16.28;47.73;101185.44;4857805;29;20056;-77
2023/05/24 04:38:46;;;;;;;3.15;1.00;;;;;;;16.26;48.99;101189.75;4859574;29;20499;-77
2023/05/24 04:41:15;;;;;;;2.72;1.00;;;;;;;16.22;48.49;101193.22;4852261;29;20076;-78
2023/05/24 04:43:43;;;;;;;2.47;0.90;;;;;;;16.20;49.53;101197.53;4852582;29;20061;-78
2023/05/24 04:46:12;;;;;;;4.15;1.23;;;;;;;16.15;49.40;101189.63;4857264;29;20492;-77
2023/05/24 04:48:40;;;;;;;2.80;1.52;;;;;;;16.11;49.10;101193.94;4853615;29;20058;-77
2023/05/24 04:51:11;;;;;;;4.20;1.35;;;;;;;16.06;48.88;101200.81;4850343;29;20128;-77
2023/05/24 04:53:40;;;;;;;6.00;1.25;;;;;;;16.02;49.31;101193.81;4851891;29;20108;-78
2023/05/24 04:56:08;;;;;;;8.45;1.30;;;;;;;15.96;49.16;101204.13;4857023;29;20069;-77
2023/05/24 04:58:37;;;;;;;2.55;0.82;;;;;;;15.92;49.46;101202.38;4872641;29;20060;-77
2023/05/24 05:01:05;;;;;;;4.38;1.30;;;;;;;15.89;49.40;101204.91;4857419;29;20118;-79
2023/05/24 05:03:34;;;;;;;7.05;1.08;;;;;;;15.86;49.63;101210.09;4866084;29;20116;-76
2023/05/24 05:06:02;;;;;;;2.30;0.77;;;;;;;15.82;50.39;101214.38;4860019;29;20061;-76
2023/05/24 05:08:33;;;;;;;2.55;1.15;;;;;;;15.75;49.39;101201.22;4854637;29;20541;-74
2023/05/24 05:11:01;;;;;;;4.13;1.00;;;;;;;15.70;49.60;101206.34;4857834;29;20045;-77
2023/05/24 05:13:30;;;;;;;3.60;1.00;;;;;;;15.66;49.17;101205.41;4855328;29;20076;-77
2023/05/24 05:15:58;;;;;;;5.88;1.33;;;;;;;15.63;50.21;101201.88;4858460;29;20056;-78
2023/05/24 05:18:27;;;;;;;2.75;0.88;;;;;;;15.60;50.91;101205.31;4864632;29;20515;-77
2023/05/24 05:20:56;;;;;;;2.72;1.33;;;;;;;15.57;50.60;101201.78;4858348;29;20050;-76
2023/05/24 05:23:24;;;;;;;5.35;1.27;;;;;;;15.54;50.90;101209.56;4857446;29;20084;-76
2023/05/24 05:25:54;;;;;;;4.53;1.08;;;;;;;15.48;51.03;101207.72;4850403;29;20053;-76
2023/05/24 05:28:23;;;;;;;3.08;1.40;;;;;;;15.43;51.61;101201.53;4854524;29;20065;-76
2023/05/24 05:30:52;;;;;;;2.45;1.00;;;;;;;15.41;51.55;101205.84;4855875;29;20110;-76
2023/05/24 05:33:20;;;;;;;5.72;1.05;;;;;;;15.39;51.54;101204.94;4852002;29;20062;-76
2023/05/24 05:35:49;;;;;;;5.53;1.40;;;;;;;15.37;51.48;101198.81;4852976;29;20049;-75
2023/05/24 05:38:18;;;;;;;2.85;0.75;;;;;;;15.37;52.89;101206.66;4865366;29;20114;-77
2023/05/24 05:40:46;;;;;;;8.57;1.23;;;;;;;15.33;52.57;101208.34;4862253;29;20064;-76
2023/05/24 05:43:16;;;;;;;5.13;1.33;;;;;;;15.28;53.02;101203.06;4847375;29;21277;-76
2023/05/24 05:45:45;;;;;;;3.13;1.10;;;;;;;15.25;52.00;101213.41;4860475;29;20144;-75
2023/05/24 05:48:13;;;;;;;5.03;0.95;;;;;;;15.23;53.11;101206.41;4860285;29;20579;-76
2023/05/24 05:50:42;;;;;;;4.85;1.25;;;;;;;15.20;53.59;101206.38;4860651;29;20042;-75
2023/05/24 05:53:11;;;;;;;3.70;1.30;;;;;;;15.19;53.75;101207.22;4857449;29;20050;-76
2023/05/24 05:55:39;;;;;;;8.38;1.10;;;;;;;15.15;54.85;101203.69;4859907;29;20053;-75
2023/05/24 05:58:08;;;;;;;2.65;1.13;;;;;;;15.10;54.48;101205.34;4861887;29;20133;-75
2023/05/24 06:00:38;;;;;;;3.05;1.00;;;;;;;15.05;54.93;101209.59;4857321;29;20050;-76
2023/05/24 06:03:07;;;;;;;5.40;1.10;;;;;;;15.00;54.96;101201.69;4850171;29;20114;-76
2023/05/24 06:05:36;;;;;;;2.50;0.80;;;;;;;14.96;55.24;101207.69;4854564;29;20125;-75
2023/05/24 06:08:04;;;;;;;5.53;1.27;;;;;;;14.94;55.12;101205.91;4853556;29;20057;-76
2023/05/24 06:10:33;;;;;;;4.75;1.35;;;;;;;14.92;54.86;101200.66;4852218;29;20790;-77
2023/05/24 06:13:04;;;;;;;9.05;1.70;;;;;;;14.88;55.54;101197.09;4856815;29;20545;-78
2023/05/24 06:15:33;;;;;;;8.52;1.17;;;;;;;14.84;55.05;101197.91;4861626;29;20045;-76
2023/05/24 06:18:03;;;;;;;5.82;1.10;;;;;;;14.81;55.18;101200.44;4859299;29;20093;-77
2023/05/24 06:20:32;;;;;;;6.68;1.67;;;;;;;14.77;55.49;101202.97;4858812;29;20052;-76
2023/05/24 06:23:00;;;;;;;3.22;1.63;;;;;;;14.74;55.73;101205.50;4866028;29;20057;-78
2023/05/24 06:25:29;;;;;;;3.03;1.05;;;;;;;14.70;56.80;101196.75;4860525;29;20522;-76
2023/05/24 06:27:58;;;;;;;2.13;0.93;;;;;;;14.66;55.96;101201.03;4853814;29;20088;-76
2023/05/24 06:30:26;;;;;;;4.35;0.95;;;;;;;14.64;56.79;101204.47;4856982;29;20125;-77
2023/05/24 06:32:55;;;;;;;3.78;1.40;;;;;;;14.61;56.43;101201.78;4863597;29;20112;-79
2023/05/24 06:35:26;;;;;;;2.15;0.93;;;;;;;14.59;56.95;101208.66;4857846;29;20058;-77
2023/05/24 06:37:56;;;;;;;6.22;1.27;;;;;;;14.54;56.87;101202.47;4850055;29;20952;-77
2023/05/24 06:40:24;;;;;;;6.85;1.02;;;;;;;14.50;57.20;101196.34;4858408;29;20058;-79
2023/05/24 06:42:53;;;;;;;6.30;1.23;;;;;;;14.44;57.79;101197.06;4850854;29;20045;-77
2023/05/24 06:45:22;;;;;;;4.57;1.50;;;;;;;14.41;57.45;101198.75;4853855;29;20655;-76
2023/05/24 06:47:50;;;;;;;8.18;1.30;;;;;;;14.36;57.54;101195.16;4858446;29;20056;-76
2023/05/24 06:50:19;;;;;;;9.82;1.05;;;;;;;14.36;58.05;101203.88;4860843;29;20061;-77
2023/05/24 06:52:49;;;;;;;6.05;1.08;;;;;;;14.31;58.51;101197.66;4853242;29;20057;-79
2023/05/24 06:55:18;;;;;;;4.38;0.90;;;;;;;14.28;58.54;101202.81;4856285;29;20057;-78
2023/05/24 06:57:46;;;;;;;4.05;1.42;;;;;;;14.24;58.74;101206.19;4855324;29;20593;-78
2023/05/24 07:00:16;;;;;;;2.13;0.95;;;;;;;14.23;58.86;101204.44;4859006;29;20061;-75
2023/05/24 07:02:45;;;;;;;3.85;0.82;;;;;;;14.15;59.00;101201.66;4855451;29;20050;-77
2023/05/24 07:05:13;;;;;;;8.13;1.40;;;;;;;14.18;59.80;101206.94;4849439;29;20556;-76
2023/05/24 07:07:42;;;;;;;4.13;1.10;;;;;;;14.13;60.14;101203.38;4860176;29;20572;-77
2023/05/24 07:10:13;;;;;;;6.57;1.25;;;;;;;14.08;59.80;101202.38;4853722;29;20679;-79
2023/05/24 07:12:41;;;;;;;4.57;1.45;;;;;;;14.06;60.25;101200.56;4848621;29;20057;-77
2023/05/24 07:15:11;;;;;;;5.43;1.35;;;;;;;14.03;61.02;101197.06;4858035;29;20114;-77
2023/05/24 07:17:39;;;;;;;3.53;1.50;;;;;;;13.99;60.65;101197.81;4853790;29;20042;-78
2023/05/24 07:20:10;;;;;;;3.88;0.70;;;;;;;13.95;60.77;101187.31;4854914;29;20057;-79
2023/05/24 07:22:39;;;;;;;1.48;0.80;;;;;;;13.94;60.96;101195.97;4863729;29;20492;-78
2023/05/24 07:25:08;;;;;;;3.50;0.80;;;;;;;13.90;61.68;101200.22;4868544;29;20204;-78
2023/05/24 07:27:38;;;;;;;3.83;1.25;;;;;;;13.88;61.18;101206.22;4854956;29;20065;-78
2023/05/24 07:30:08;;;;;;;4.68;1.38;;;;;;;13.81;61.75;101215.63;4855844;29;20049;-78
2023/05/24 07:32:36;;;;;;;3.20;1.30;;;;;;;13.77;63.42;101219.00;4850076;29;20057;-78
2023/05/24 07:35:06;;;;;;;4.38;1.15;;;;;;;13.73;64.52;101223.25;4855611;29;20094;-78
2023/05/24 07:37:34;;;;;;;6.43;1.10;;;;;;;13.67;64.96;101217.00;4859339;29;20049;-80
2023/05/24 07:40:13;;;;;;;5.57;1.27;;;;;;;13.58;63.56;101231.56;4861487;29;20050;-78
2023/05/24 07:42:43;;;;;;;3.63;1.58;;;;;;;13.56;63.79;101228.03;4859821;29;20128;-77
2023/05/24 07:45:12;;;;;;;3.75;0.77;;;;;;;13.55;62.90;101226.28;4860056;29;20603;-78
2023/05/24 07:47:41;;;;;;;1.85;0.65;;;;;;;13.54;65.21;101232.31;4845353;29;20738;-76
2023/05/24 07:50:10;;;;;;;6.78;1.23;;;;;;;13.51;66.29;101231.34;4836022;29;20060;-75
2023/05/24 07:52:39;;;;;;;3.75;0.95;;;;;;;13.47;65.67;101233.00;4824199;29;20061;-77
2023/05/24 07:55:08;;;;;;;3.30;1.23;;;;;;;13.46;64.61;101233.84;4832762;29;20096;-76
2023/05/24 07:57:36;;;;;;;4.03;1.20;;;;;;;13.45;63.70;101232.09;4834977;29;20053;-76
2023/05/24 08:00:13;;;;;;;2.92;0.88;;;;;;;13.43;64.46;101228.56;4834145;29;20505;-77
2023/05/24 08:02:42;;;;;;;2.60;1.00;;;;;;;13.40;64.73;101233.72;4832521;29;20587;-77
2023/05/24 08:05:12;;;;;;;6.03;1.08;;;;;;;13.39;65.61;101229.31;4840477;29;20386;-77
2023/05/24 08:07:41;;;;;;;4.70;1.38;;;;;;;13.36;66.06;101229.25;4837691;29;20065;-76
2023/05/24 08:10:11;;;;;;;4.60;0.80;;;;;;;13.29;65.23;101224.75;4838990;29;20153;-77
2023/05/24 08:12:40;;;;;;;1.23;0.80;;;;;;;13.23;65.17;101224.53;4836689;29;20135;-76
2023/05/24 08:15:11;;;;;;;6.00;1.38;;;;;;;13.19;65.25;101224.47;4840054;29;20046;-77
2023/05/24 08:17:40;;;;;;;1.73;1.02;;;;;;;13.15;66.03;101222.63;4840945;29;20486;-76
2023/05/24 08:20:12;;;;;;;7.68;1.45;;;;;;;13.13;65.93;101216.50;4836368;29;20066;-76
2023/05/24 08:22:41;;;;;;;6.85;1.15;;;;;;;13.10;66.00;101216.44;4841757;29;20070;-75
2023/05/24 08:25:10;;;;;;;1.38;0.70;;;;;;;13.07;66.08;101218.06;4830031;29;20054;-76
2023/05/24 08:27:46;;;;;;;4.78;1.23;;;;;;;13.01;65.23;101213.59;4838721;29;20050;-77
2023/05/24 08:30:16;;;;;;;8.10;1.75;;;;;;;13.01;65.95;101211.00;4839476;29;20061;-77
2023/05/24 08:32:45;;;;;;;4.95;1.23;;;;;;;12.97;65.27;101217.81;4835629;29;20937;-79
2023/05/24 08:35:13;;;;;;;3.70;1.10;;;;;;;12.94;67.05;101216.84;4838989;29;20397;-77
2023/05/24 08:37:42;;;;;;;6.22;1.17;;;;;;;12.90;66.94;101215.91;4836787;29;21278;-77
2023/05/24 08:40:11;;;;;;;3.35;1.10;;;;;;;12.91;67.72;101211.56;4835756;29;20106;-77
2023/05/24 08:42:40;;;;;;;2.95;1.40;;;;;;;12.89;68.40;101210.66;4841154;29;20137;-76
2023/05/24 08:45:12;;;;;;;7.03;1.30;;;;;;;12.85;67.04;101211.41;4839898;29;20083;-77
2023/05/24 08:47:42;;;;;;;3.63;0.75;;;;;;;12.83;67.18;101213.06;4848751;29;20069;-76
2023/05/24 08:50:12;;;;;;;1.27;1.10;;;;;;;12.74;69.12;101214.59;4857825;29;20058;-77
2023/05/24 08:52:41;;;;;;;4.07;1.05;;;;;;;12.69;68.52;101211.00;4852659;29;20113;-78
2023/05/24 08:55:11;;;;;;;5.15;1.45;;;;;;;12.63;67.72;101218.59;4864776;29;20061;-78
2023/05/24 08:57:40;;;;;;;5.30;1.40;;;;;;;12.57;69.07;101216.72;4859914;29;20543;-78
2023/05/24 09:00:11;;;;;;;4.55;1.05;;;;;;;12.54;69.27;101214.00;4850749;29;20049;-77
2023/05/24 09:02:42;;;;;;;9.02;1.75;;;;;;;12.54;69.42;101210.53;4853288;29;20084;-76
2023/05/24 09:05:13;;;;;;;2.97;1.05;;;;;;;12.53;69.03;101208.81;4858488;29;20127;-77
2023/05/24 09:07:42;;;;;;;6.25;1.10;;;;;;;12.50;69.31;101219.06;4860845;29;20068;-77
2023/05/24 09:10:12;;;;;;;2.53;1.15;;;;;;;12.47;69.90;101213.81;4856356;29;20572;-76
2023/05/24 09:12:45;;;;;;;2.97;0.85;;;;;;;12.46;69.99;101219.81;4852993;29;20062;-77
2023/05/24 09:15:13;;;;;;;4.95;1.33;;;;;;;12.44;69.82;101217.19;4851901;29;20142;-82
2023/05/24 09:17:44;;;;;;;2.28;0.85;;;;;;;12.38;70.23;101217.00;4864785;29;20060;-78
2023/05/24 09:20:13;;;;;;;1.88;1.20;;;;;;;12.28;72.42;101215.88;4861280;29;20056;-76
2023/05/24 09:22:43;;;;;;;3.97;1.05;;;;;;;12.25;71.78;101213.16;4860354;29;20554;-79
2023/05/24 09:25:14;;;;;;;7.35;1.55;;;;;;;12.16;73.19;101207.69;4854118;29;20130;-78
2023/05/24 09:27:43;;;;;;;5.60;1.23;;;;;;;12.16;72.05;101215.47;4855422;29;20065;-75
2023/05/24 09:30:12;;;;;;;5.45;1.30;;;;;;;12.14;72.35;101214.56;4862834;29;20053;-78
2023/05/24 09:32:57;;;;;;;4.50;1.27;;;;;;;12.11;72.34;101219.66;4863503;29;20125;-78
2023/05/24 09:35:30;;;;;;;5.00;1.00;;;;;;;12.06;72.38;101210.84;4854383;29;20080;-78
2023/05/24 09:38:17;;;;;;;5.35;1.10;;;;;;;12.04;73.09;101209.91;4853767;29;20053;-79
2023/05/24 09:41:00;;;;;;;3.67;0.95;;;;;;;12.04;73.06;101204.72;4863988;29;20109;-78
2023/05/24 09:43:29;;;;;;;4.32;1.15;;;;;;;12.03;73.25;101205.59;4858264;29;20652;-75
2023/05/24 09:45:59;;;;;;;4.90;1.13;;;;;;;12.01;73.70;101202.06;4850513;29;20107;-77
2023/05/24 09:48:29;;;;;;;3.78;1.27;;;;;;;11.97;72.35;101211.44;4861895;29;20559;-78
2023/05/24 09:51:08;;;;;;;6.28;1.50;;;;;;;11.97;74.07;101210.56;4851002;29;20049;-79
2023/05/24 09:57:32;;;;;;;5.25;1.30;;;;;;;11.91;75.15;101206.97;4813625;29;20429;-78
2023/05/24 10:00:15;;;;;;;2.97;1.25;;;;;;;11.91;75.85;101206.97;4846668;29;20064;-78
2023/05/24 10:03:02;;;;;;;3.28;1.05;;;;;;;11.87;74.49;101210.28;4864393;29;20053;-78
2023/05/24 10:05:33;;;;;;;4.90;1.10;;;;;;;11.85;74.00;101204.13;4843219;29;20052;-77
2023/05/24 10:08:03;;;;;;;10.20;1.05;;;;;;;11.84;75.11;101199.78;4858386;29;20053;-76
2023/05/24 10:10:33;;;;;;;2.83;0.90;;;;;;;11.85;74.20;101196.34;4858826;29;20194;-76
2023/05/24 10:13:03;;;;;;;3.13;1.15;;;;;;;11.82;74.50;101192.78;4860956;29;20124;-76
2023/05/24 10:15:31;;;;;;;4.43;1.17;;;;;;;11.91;74.72;101191.41;4860205;29;20053;-76
2023/05/24 10:18:01;;;;;;;3.40;1.25;;;;;;;11.95;74.14;101203.59;4862972;29;20049;-75
2023/05/24 10:20:29;;;;;;;3.22;1.30;;;;;;;11.98;74.88;101202.84;4858731;29;20060;-76
2023/05/24 10:23:01;;;;;;;5.78;1.10;;;;;;;11.99;74.66;101198.53;4841854;29;20050;-77
2023/05/24 10:25:30;;;;;;;1.85;0.88;;;;;;;12.00;75.27;101195.09;4849080;29;20057;-76
2023/05/24 10:28:02;;;;;;;8.40;1.52;;;;;;;12.00;75.16;101195.97;4852667;29;20089;-76
2023/05/24 10:30:36;;;;;;;3.65;0.82;;;;;;;12.01;75.78;101207.25;4859399;29;20572;-76
2023/05/24 10:33:07;;;;;;;4.20;1.42;;;;;;;12.00;75.39;101210.66;4858024;29;20045;-74
2023/05/24 10:35:37;;;;;;;4.15;1.05;;;;;;;12.01;74.42;101207.25;4856722;29;20990;-75
2023/05/24 10:38:09;;;;;;;3.83;1.50;;;;;;;12.03;73.80;101215.97;4870166;29;20080;-75
2023/05/24 10:40:42;;;;;;;;;;;;;;;12.05;73.46;101220.34;4861186;29;20045;-76
2023/05/24 10:43:11;;;;;;;4.80;1.20;;;;;;;12.02;72.82;101209.00;4857091;29;20368;-75
2023/05/24 10:45:41;;;;;;;3.28;0.80;;;;;;;12.07;72.81;101218.69;4855115;29;20553;-76
2023/05/24 10:48:37;;;;;;;5.13;1.58;;;;;;;12.08;72.51;101209.19;4857564;29;20068;-75
2023/05/24 10:51:33;;;;;;;7.25;1.33;;;;;;;12.08;72.03;101212.66;4850998;29;20515;-76
2023/05/24 10:54:18;;;;;;;2.60;1.42;;;;;;;12.09;72.14;101213.53;4854581;29;20208;-76
2023/05/24 10:56:47;;;;;;;5.85;1.00;;;;;;;12.07;72.37;101215.19;4864945;29;20045;-76
2023/05/24 10:59:33;;;;;;;5.63;1.45;;;;;;;12.01;72.40;101223.69;4862033;29;20061;-76
2023/05/24 11:02:02;;;;;;;4.53;1.10;;;;;;;11.98;72.86;101214.91;4854697;29;20058;-77
2023/05/24 11:04:37;;;;;;;3.70;0.82;;;;;;;11.92;75.21;101223.41;4857275;29;20151;-77
2023/05/24 11:07:08;;;;;;;3.78;1.10;;;;;;;11.90;74.97;101223.34;4862772;29;20237;-76
2023/05/24 11:09:44;;;;;;;3.10;1.33;;;;;;;11.91;74.58;101213.84;4856356;29;20045;-76
2023/05/24 11:12:16;;;;;;;3.25;0.70;;;;;;;11.88;74.63;101217.22;4854369;29;20167;-76
2023/05/24 11:14:50;;;;;;;1.87;1.00;;;;;;;11.86;74.26;101223.16;4856997;29;20076;-75
2023/05/24 11:17:21;;;;;;;10.77;2.03;;;;;;;11.76;74.69;101206.44;4856336;29;20308;-76
2023/05/24 11:19:52;;;;;;;2.35;0.93;;;;;;;11.80;74.25;101223.84;4858039;29;20085;-75
2023/05/24 11:22:22;;;;;;;4.55;1.33;;;;;;;11.81;74.82;101220.41;4851478;29;20057;-76
2023/05/24 11:24:53;;;;;;;5.68;1.05;;;;;;;11.82;74.41;101218.69;4848488;29;20125;-76
2023/05/24 11:27:22;;;;;;;6.65;1.35;;;;;;;11.81;74.49;101223.00;4856396;29;20061;-75
2023/05/24 11:29:50;;;;;;;4.72;0.85;;;;;;;11.79;76.24;101216.91;4856388;29;20591;-76
2023/05/24 11:32:22;;;;;;;6.88;1.30;;;;;;;11.77;75.42;101217.69;4852693;29;20777;-75
2023/05/24 11:34:51;;;;;;;3.07;1.43;;;;;;;11.71;75.57;101213.19;4851013;29;20077;-76
2023/05/24 11:37:19;;;;;;;6.47;1.55;;;;;;;11.70;76.56;101211.41;4853892;29;20046;-75
2023/05/24 11:39:53;;;;;;;4.35;1.50;;;;;;;11.69;75.86;101217.44;4856853;29;20778;-75
2023/05/24 11:42:23;;;;;;;3.97;1.92;;;;;;;11.68;75.33;101207.88;4857471;29;20065;-75
2023/05/24 11:44:52;;;;;;;5.38;1.10;;;;;;;11.69;75.63;101204.47;4860996;29;20070;-76
2023/05/24 11:47:22;;;;;;;3.08;1.40;;;;;;;11.68;75.66;101206.19;4862233;29;20082;-75